Mariner A — 9HVA7 — position and weather

sailwx.info

Track history (hours):
 
Tides and Currents Weather Stations Pressure Air Temp Water Temp Dewpoint Dewpoint Depression Visibility Wind Speed Wind Dir Waves Ship Positions

Mariner A

Last reported at 2015-Jan-27 14:04 UTC. Time now 2015-Jan-28 14:15 UTC.
Position N 44°39' E 037°30'.

Length 176 m; draft 7.8 m.

Type: Tanker. MMSI: 215817000.

Date/timePositionNaut miles runAvg speedWind from/ knotsBaromVisibWave heightAir tempDewpointWater temp
2015-Jan-27 14:04N 44°39' E 037°30'0 0.0
2015-Jan-27 13:16N 44°39' E 037°30'0 0.0
2015-Jan-27 12:31N 44°39' E 037°30'0 0.0
2015-Jan-27 11:27N 44°39' E 037°30'0 0.0
2015-Jan-27 09:32N 44°39' E 037°30'0 0.0
2015-Jan-26 14:25N 44°39' E 037°30'0 0.0
2015-Jan-26 13:33N 44°39' E 037°30'0 0.0
2015-Jan-26 12:32N 44°39' E 037°30'0 0.0
2015-Jan-26 11:33N 44°39' E 037°30'0 0.0
2015-Jan-26 10:30N 44°39' E 037°30'0 0.0
2015-Jan-26 09:29N 44°39' E 037°30'0 0.0
2015-Jan-26 08:25N 44°39' E 037°30'0 0.0
2015-Jan-26 07:32N 44°39' E 037°30'0 0.0
2015-Jan-26 06:33N 44°39' E 037°30'0 0.0
2015-Jan-26 05:29N 44°39' E 037°30'0 0.0
2015-Jan-25 14:32N 44°39' E 037°30'0 0.0
2015-Jan-25 13:33N 44°39' E 037°30'0 0.0
2015-Jan-25 12:33N 44°39' E 037°30'0 0.0
2015-Jan-25 11:28N 44°39' E 037°30'0 0.0
2015-Jan-25 10:33N 44°39' E 037°30'0 0.0
2015-Jan-25 09:33N 44°39' E 037°30'0 0.0
2015-Jan-25 08:31N 44°39' E 037°30'4 3.6
2015-Jan-25 07:30N 44°35' E 037°30'9 9.7
2015-Jan-25 06:33N 44°26' E 037°28'1211.8
2015-Jan-25 05:31N 44°19' E 037°14'3012.2
2015-Jan-25 03:03N 44°06' E 036°36'7011.8
2015-Jan-24 21:09N 43°34' E 035°11'27511.6
2015-Jan-23 21:30N 41°29' E 029°38'1412.2
2015-Jan-23 20:24N 41°23' E 029°22'1111.6
2015-Jan-23 19:27N 41°16' E 029°11'  
2015-Jan-20 21:24N 41°20' E 029°09'8 9.0
2015-Jan-20 20:30N 41°21' E 029°20'8 8.0
2015-Jan-20 19:33N 41°21' E 029°30'1 0.8
2015-Jan-20 18:33N 41°21' E 029°29'1 0.9
2015-Jan-20 17:33N 41°21' E 029°28'1 1.0
2015-Jan-20 16:33N 41°21' E 029°26'1 1.0
2015-Jan-20 15:33N 41°22' E 029°25'1 1.1
2015-Jan-20 14:33N 41°22' E 029°24'1 1.1
2015-Jan-20 13:33N 41°22' E 029°22'1 1.1
2015-Jan-20 12:33N 41°22' E 029°21'2 1.0
2015-Jan-20 10:21N 41°22' E 029°18'1 1.1
2015-Jan-20 09:11N 41°22' E 029°16'6 7.0
2015-Jan-20 08:22N 41°23' E 029°23'8 9.8
2015-Jan-20 07:33N 41°26' E 029°33'3 0.3
2015-Jan-19 22:33N 41°26' E 029°37'1 1.1
2015-Jan-19 21:32N 41°26' E 029°36'1 1.1
2015-Jan-19 20:33N 41°25' E 029°34'1 1.1
2015-Jan-19 19:33N 41°25' E 029°33'1 1.1
2015-Jan-19 18:33N 41°24' E 029°32'1 1.0
2015-Jan-19 17:33N 41°24' E 029°30'1 0.9
2015-Jan-19 16:33N 41°24' E 029°29'1 1.0
2015-Jan-19 15:33N 41°23' E 029°28'1 1.3
2015-Jan-19 14:33N 41°23' E 029°26'1 1.2
2015-Jan-19 13:27N 41°23' E 029°25'1 1.3
2015-Jan-19 12:30N 41°23' E 029°23'1 1.3
2015-Jan-19 11:33N 41°23' E 029°21'1 1.2
2015-Jan-19 10:33N 41°23' E 029°20'2 0.8
2015-Jan-19 08:06N 41°22' E 029°17'0 0.6
2015-Jan-19 07:24N 41°22' E 029°17'3 1.0
2015-Jan-19 04:19N 41°25' E 029°19'24811.2
2015-Jan-18 06:07N 43°17' E 034°18'15111.6
2015-Jan-17 17:08N 44°26' E 037°24'712.0
2015-Jan-17 16:33N 44°29' E 037°33'1211.6
2015-Jan-17 15:33N 44°35' E 037°46'8 7.9
2015-Jan-17 14:33N 44°42' E 037°50'  
Track history (hours):
 
Tides and Currents Weather Stations Pressure Air Temp Water Temp Dewpoint Dewpoint Depression Visibility Wind Speed Wind Dir Waves Ship Positions

Mariner A

Last reported at 2015-Jan-27 14:04 UTC. Time now 2015-Jan-28 14:15 UTC.
Position N 44°39' E 037°30'.

Length 176 m; draft 7.8 m.

Type: Tanker. MMSI: 215817000.

Date/timePositionNaut miles runAvg speedWind from/ knotsBaromVisibWave heightAir tempDewpointWater temp
2015-Jan-27 14:04N 44°39' E 037°30'0 0.0
2015-Jan-27 13:16N 44°39' E 037°30'0 0.0
2015-Jan-27 12:31N 44°39' E 037°30'0 0.0
2015-Jan-27 11:27N 44°39' E 037°30'0 0.0
2015-Jan-27 09:32N 44°39' E 037°30'0 0.0
2015-Jan-26 14:25N 44°39' E 037°30'0 0.0
2015-Jan-26 13:33N 44°39' E 037°30'0 0.0
2015-Jan-26 12:32N 44°39' E 037°30'0 0.0
2015-Jan-26 11:33N 44°39' E 037°30'0 0.0
2015-Jan-26 10:30N 44°39' E 037°30'0 0.0
2015-Jan-26 09:29N 44°39' E 037°30'0 0.0
2015-Jan-26 08:25N 44°39' E 037°30'0 0.0
2015-Jan-26 07:32N 44°39' E 037°30'0 0.0
2015-Jan-26 06:33N 44°39' E 037°30'0 0.0
2015-Jan-26 05:29N 44°39' E 037°30'0 0.0
2015-Jan-25 14:32N 44°39' E 037°30'0 0.0
2015-Jan-25 13:33N 44°39' E 037°30'0 0.0
2015-Jan-25 12:33N 44°39' E 037°30'0 0.0
2015-Jan-25 11:28N 44°39' E 037°30'0 0.0
2015-Jan-25 10:33N 44°39' E 037°30'0 0.0
2015-Jan-25 09:33N 44°39' E 037°30'0 0.0
2015-Jan-25 08:31N 44°39' E 037°30'4 3.6
2015-Jan-25 07:30N 44°35' E 037°30'9 9.7
2015-Jan-25 06:33N 44°26' E 037°28'1211.8
2015-Jan-25 05:31N 44°19' E 037°14'3012.2
2015-Jan-25 03:03N 44°06' E 036°36'7011.8
2015-Jan-24 21:09N 43°34' E 035°11'27511.6
2015-Jan-23 21:30N 41°29' E 029°38'1412.2
2015-Jan-23 20:24N 41°23' E 029°22'1111.6
2015-Jan-23 19:27N 41°16' E 029°11'  
2015-Jan-20 21:24N 41°20' E 029°09'8 9.0
2015-Jan-20 20:30N 41°21' E 029°20'8 8.0
2015-Jan-20 19:33N 41°21' E 029°30'1 0.8
2015-Jan-20 18:33N 41°21' E 029°29'1 0.9
2015-Jan-20 17:33N 41°21' E 029°28'1 1.0
2015-Jan-20 16:33N 41°21' E 029°26'1 1.0
2015-Jan-20 15:33N 41°22' E 029°25'1 1.1
2015-Jan-20 14:33N 41°22' E 029°24'1 1.1
2015-Jan-20 13:33N 41°22' E 029°22'1 1.1
2015-Jan-20 12:33N 41°22' E 029°21'2 1.0
2015-Jan-20 10:21N 41°22' E 029°18'1 1.1
2015-Jan-20 09:11N 41°22' E 029°16'6 7.0
2015-Jan-20 08:22N 41°23' E 029°23'8 9.8
2015-Jan-20 07:33N 41°26' E 029°33'3 0.3
2015-Jan-19 22:33N 41°26' E 029°37'1 1.1
2015-Jan-19 21:32N 41°26' E 029°36'1 1.1
2015-Jan-19 20:33N 41°25' E 029°34'1 1.1
2015-Jan-19 19:33N 41°25' E 029°33'1 1.1
2015-Jan-19 18:33N 41°24' E 029°32'1 1.0
2015-Jan-19 17:33N 41°24' E 029°30'1 0.9
2015-Jan-19 16:33N 41°24' E 029°29'1 1.0
2015-Jan-19 15:33N 41°23' E 029°28'1 1.3
2015-Jan-19 14:33N 41°23' E 029°26'1 1.2
2015-Jan-19 13:27N 41°23' E 029°25'1 1.3
2015-Jan-19 12:30N 41°23' E 029°23'1 1.3
2015-Jan-19 11:33N 41°23' E 029°21'1 1.2
2015-Jan-19 10:33N 41°23' E 029°20'2 0.8
2015-Jan-19 08:06N 41°22' E 029°17'0 0.6
2015-Jan-19 07:24N 41°22' E 029°17'3 1.0
2015-Jan-19 04:19N 41°25' E 029°19'24811.2
2015-Jan-18 06:07N 43°17' E 034°18'15111.6
2015-Jan-17 17:08N 44°26' E 037°24'712.0
2015-Jan-17 16:33N 44°29' E 037°33'1211.6
2015-Jan-17 15:33N 44°35' E 037°46'8 7.9
2015-Jan-17 14:33N 44°42' E 037°50'  

Dump ship's entire track history